createdAt,value
2019-02-27T00:01:05.267Z,69.30
2019-02-27T00:02:06.777Z,69.50
2019-02-27T00:03:07.896Z,69.50
2019-02-27T00:04:09.374Z,69.50
2019-02-27T00:05:10.485Z,69.30
2019-02-27T00:06:12.931Z,69.30
2019-02-27T00:07:15.019Z,69.20
2019-02-27T00:08:16.369Z,69.10
2019-02-27T00:09:17.503Z,69.30
2019-02-27T00:10:18.921Z,69.30
2019-02-27T00:11:20.027Z,70.30
2019-02-27T00:12:21.140Z,69.50
2019-02-27T00:13:24.709Z,69.70
2019-02-27T00:14:25.524Z,69.80
2019-02-27T00:15:26.929Z,69.90
2019-02-27T00:16:28.045Z,70.00
2019-02-27T00:17:29.189Z,70.10
2019-02-27T00:18:30.552Z,70.30
2019-02-27T00:19:31.978Z,70.40
2019-02-27T00:20:36.627Z,70.70
2019-02-27T00:21:36.178Z,70.90
2019-02-27T00:22:37.297Z,71.30
2019-02-27T00:23:38.760Z,71.50
2019-02-27T00:24:39.892Z,71.40
2019-02-27T00:25:41.009Z,71.40
2019-02-27T00:26:42.459Z,70.40
2019-02-27T00:27:48.809Z,70.90
2019-02-27T00:28:47.698Z,70.90
2019-02-27T00:29:48.881Z,71.80
2019-02-27T00:30:49.992Z,70.80
2019-02-27T00:31:51.500Z,70.90
2019-02-27T00:32:52.949Z,71.10
2019-02-27T00:33:54.065Z,71.00
2019-02-27T00:34:55.193Z,71.00
2019-02-27T00:35:56.505Z,71.10
2019-02-27T00:36:57.639Z,71.10
2019-02-27T00:37:59.250Z,71.20
2019-02-27T00:39:00.372Z,71.10
2019-02-27T00:40:05.349Z,71.20
2019-02-27T00:41:04.517Z,71.60
2019-02-27T00:42:05.868Z,71.00
2019-02-27T00:43:06.981Z,71.00
2019-02-27T00:44:08.096Z,71.10
2019-02-27T00:45:10.240Z,72.20
2019-02-27T00:46:13.384Z,71.60
2019-02-27T00:47:19.719Z,72.40
2019-02-27T00:48:17.945Z,71.50
2019-02-27T00:49:19.380Z,71.50
2019-02-27T00:50:20.512Z,71.60
2019-02-27T00:51:21.941Z,71.60
2019-02-27T00:52:23.212Z,71.50
2019-02-27T00:53:25.175Z,71.40
2019-02-27T00:54:26.344Z,71.40
2019-02-27T00:55:27.468Z,71.40
2019-02-27T00:56:28.583Z,71.40
2019-02-27T00:57:29.711Z,71.40
2019-02-27T00:58:31.116Z,71.50
2019-02-27T00:59:33.135Z,71.70
2019-02-27T01:00:38.892Z,71.80
2019-02-27T01:01:38.505Z,71.80
2019-02-27T01:02:39.615Z,71.80
2019-02-27T01:03:41.384Z,72.00
2019-02-27T01:04:42.512Z,72.20
2019-02-27T01:05:43.953Z,72.20
2019-02-27T01:06:47.313Z,71.70
2019-02-27T01:07:48.365Z,72.20
2019-02-27T01:08:49.477Z,72.00
2019-02-27T01:09:50.608Z,71.80
2019-02-27T01:10:51.713Z,71.70
2019-02-27T01:11:53.415Z,72.00
2019-02-27T01:12:57.961Z,73.20
2019-02-27T01:13:57.802Z,73.40
2019-02-27T01:14:58.932Z,73.40
2019-02-27T01:16:00.044Z,73.40
2019-02-27T01:17:01.429Z,73.50
2019-02-27T01:18:02.544Z,73.30
2019-02-27T01:19:04.804Z,73.90
2019-02-27T01:20:11.529Z,72.80
2019-02-27T01:21:12.916Z,72.70
2019-02-27T01:22:14.028Z,72.40
2019-02-27T01:23:15.397Z,72.40
2019-02-27T01:24:17.520Z,72.30
2019-02-27T01:25:22.863Z,72.30
2019-02-27T01:26:22.584Z,72.10
2019-02-27T01:27:23.710Z,72.10
2019-02-27T01:28:25.069Z,72.10
2019-02-27T01:29:26.192Z,72.10
2019-02-27T01:30:27.625Z,72.30
2019-02-27T01:31:28.753Z,71.60
2019-02-27T01:32:31.166Z,72.10
2019-02-27T01:33:37.781Z,72.10
2019-02-27T01:34:35.568Z,72.20
2019-02-27T01:35:36.693Z,72.20
2019-02-27T01:36:37.811Z,72.40
2019-02-27T01:37:38.972Z,72.70
2019-02-27T01:38:40.085Z,72.70
2019-02-27T01:39:41.771Z,72.70
2019-02-27T01:40:43.164Z,73.00
2019-02-27T01:41:44.282Z,73.20
2019-02-27T01:42:45.394Z,73.10
2019-02-27T01:43:46.762Z,73.00
2019-02-27T01:44:47.874Z,73.00
2019-02-27T01:45:48.995Z,72.90
2019-02-27T01:46:50.364Z,72.80
2019-02-27T01:47:51.580Z,72.90
2019-02-27T01:48:53.043Z,73.10
2019-02-27T01:49:54.148Z,73.40
2019-02-27T01:50:55.852Z,73.40
2019-02-27T01:51:59.201Z,73.60
2019-02-27T01:53:00.371Z,73.70
2019-02-27T01:54:01.729Z,73.90
2019-02-27T01:55:03.386Z,74.00
2019-02-27T01:56:04.756Z,74.10
2019-02-27T01:57:05.864Z,74.20
2019-02-27T01:58:09.581Z,74.20
2019-02-27T01:59:10.356Z,74.30
2019-02-27T02:00:11.953Z,74.40
2019-02-27T02:01:13.079Z,74.30
2019-02-27T02:02:14.189Z,74.30
2019-02-27T02:03:15.564Z,74.30
2019-02-27T02:04:20.046Z,74.30
2019-02-27T02:05:19.697Z,74.00
2019-02-27T02:06:22.573Z,74.40
2019-02-27T02:07:23.766Z,74.30
2019-02-27T02:08:24.884Z,74.10
2019-02-27T02:09:30.280Z,74.20
2019-02-27T02:10:31.395Z,74.00
2019-02-27T02:11:32.755Z,74.10
2019-02-27T02:12:33.931Z,74.30
2019-02-27T02:13:50.654Z,74.70
2019-02-27T02:14:58.368Z,74.30
2019-02-27T02:16:24.108Z,74.40
2019-02-27T02:17:41.649Z,74.50
2019-02-27T02:18:49.370Z,74.70
2019-02-27T02:20:09.119Z,74.60
2019-02-27T02:21:32.113Z,74.80
2019-02-27T02:22:38.929Z,74.70
2019-02-27T02:24:21.206Z,74.60
2019-02-27T02:25:29.417Z,74.50
2019-02-27T02:28:48.774Z,75.10
2019-02-27T02:30:02.530Z,75.50
2019-02-27T02:31:07.850Z,76.00
2019-02-27T02:32:30.803Z,75.90
2019-02-27T02:33:44.124Z,75.80
2019-02-27T02:35:05.806Z,76.00
2019-02-27T02:36:29.089Z,75.90
2019-02-27T02:37:37.815Z,75.70
2019-02-27T02:38:49.717Z,75.50
2019-02-27T02:40:12.624Z,75.40
2019-02-27T02:41:32.173Z,75.30
2019-02-27T02:42:53.710Z,75.20
2019-02-27T02:44:20.774Z,75.20
2019-02-27T02:45:26.346Z,75.60
2019-02-27T02:46:48.043Z,76.00
2019-02-27T02:48:05.147Z,76.30
2019-02-27T02:49:13.117Z,76.50
2019-02-27T02:50:29.829Z,76.50
2019-02-27T02:51:37.329Z,76.40
2019-02-27T02:53:04.313Z,76.10
2019-02-27T02:54:27.157Z,76.10
2019-02-27T02:55:38.067Z,76.10
2019-02-27T02:57:11.981Z,76.00
2019-02-27T02:58:20.102Z,75.90
2019-02-27T02:59:50.936Z,75.70
2019-02-27T03:01:01.728Z,75.60
2019-02-27T03:02:12.577Z,75.60
2019-02-27T03:03:21.278Z,75.50
2019-02-27T03:04:47.976Z,75.50
2019-02-27T03:06:22.950Z,75.50
2019-02-27T03:07:44.879Z,75.50
2019-02-27T03:09:15.235Z,75.90
2019-02-27T03:10:26.005Z,76.10
2019-02-27T03:11:54.150Z,76.40
2019-02-27T03:13:21.349Z,76.70
2019-02-27T03:14:43.916Z,77.20
2019-02-27T03:15:49.110Z,78.30
2019-02-27T03:17:00.061Z,77.30
2019-02-27T03:18:05.639Z,78.10
2019-02-27T03:19:19.404Z,77.10
2019-02-27T03:20:27.306Z,76.90
2019-02-27T03:21:44.185Z,76.80
2019-02-27T03:22:58.494Z,76.60
2019-02-27T03:24:27.869Z,76.90
2019-02-27T03:25:49.237Z,77.30
2019-02-27T03:27:12.739Z,77.10
2019-02-27T03:28:40.953Z,77.10
2019-02-27T03:29:56.625Z,76.90
2019-02-27T03:31:16.410Z,76.80
2019-02-27T03:32:29.203Z,76.80
2019-02-27T03:34:05.533Z,76.80
2019-02-27T03:35:08.001Z,76.70
2019-02-27T03:36:38.992Z,76.70
2019-02-27T03:37:48.368Z,76.90
2019-02-27T03:39:10.607Z,77.20
2019-02-27T03:40:35.461Z,77.40
2019-02-27T03:41:59.410Z,77.50
2019-02-27T03:43:20.977Z,77.40
2019-02-27T03:44:34.521Z,77.40
2019-02-27T03:45:42.661Z,77.50
2019-02-27T03:46:47.889Z,77.50
2019-02-27T03:48:07.415Z,77.50
2019-02-27T03:49:46.049Z,77.60
2019-02-27T03:50:56.764Z,77.60
2019-02-27T03:52:13.578Z,77.50
2019-02-27T03:53:27.445Z,77.70
2019-02-27T03:54:58.129Z,77.60
2019-02-27T03:56:26.053Z,78.10
2019-02-27T03:57:46.108Z,78.60
2019-02-27T03:59:08.069Z,78.90
2019-02-27T04:00:19.190Z,79.50
2019-02-27T04:01:22.544Z,78.70
2019-02-27T04:02:38.908Z,78.70
2019-02-27T04:03:55.408Z,78.40
2019-02-27T04:05:09.544Z,78.70
2019-02-27T04:06:32.859Z,78.60
2019-02-27T04:08:08.557Z,78.80
2019-02-27T04:09:09.853Z,79.30
2019-02-27T04:10:11.415Z,79.80
2019-02-27T04:11:12.563Z,79.90
2019-02-27T04:12:16.391Z,79.70
2019-02-27T04:13:17.029Z,79.60
2019-02-27T04:14:26.490Z,79.80
2019-02-27T04:15:27.801Z,80.10
2019-02-27T04:16:30.487Z,80.40
2019-02-27T04:17:31.803Z,80.50
2019-02-27T04:18:33.031Z,79.70
2019-02-27T04:19:38.831Z,79.20
2019-02-27T04:20:37.485Z,78.90
2019-02-27T04:21:38.606Z,78.50
2019-02-27T04:22:39.777Z,78.50
2019-02-27T04:23:40.907Z,78.40
2019-02-27T04:24:42.026Z,78.20
2019-02-27T04:25:43.188Z,78.20
2019-02-27T04:26:44.377Z,78.20
2019-02-27T04:27:45.494Z,78.30
2019-02-27T04:28:46.922Z,78.20
2019-02-27T04:29:48.050Z,78.20
2019-02-27T04:30:51.270Z,78.20
2019-02-27T04:31:52.201Z,78.20
2019-02-27T04:32:53.600Z,78.30
2019-02-27T04:33:59.740Z,78.70
2019-02-27T04:34:57.744Z,78.80
2019-02-27T04:35:59.157Z,78.80
2019-02-27T04:37:00.508Z,78.80
2019-02-27T04:38:01.621Z,78.70
2019-02-27T04:39:05.052Z,78.80
2019-02-27T04:40:10.782Z,78.70
2019-02-27T04:41:10.005Z,78.70
2019-02-27T04:42:11.380Z,78.80
2019-02-27T04:43:12.525Z,78.70
2019-02-27T04:44:13.688Z,78.80
2019-02-27T04:45:14.808Z,78.80
2019-02-27T04:46:15.912Z,78.60
2019-02-27T04:47:17.353Z,78.70
2019-02-27T04:48:18.497Z,78.90
2019-02-27T04:49:19.600Z,78.80
2019-02-27T04:50:20.836Z,79.70
2019-02-27T04:51:21.973Z,79.00
2019-02-27T04:52:24.403Z,79.20
2019-02-27T04:53:25.625Z,79.10
2019-02-27T04:54:26.977Z,79.10
2019-02-27T04:55:28.108Z,79.00
2019-02-27T04:56:29.457Z,79.10
2019-02-27T04:57:33.400Z,79.30
2019-02-27T04:58:33.584Z,79.30
2019-02-27T04:59:34.715Z,79.20
2019-02-27T05:00:35.828Z,79.20
2019-02-27T05:01:37.416Z,79.40
2019-02-27T05:02:38.624Z,79.80
2019-02-27T05:03:40.088Z,79.80
2019-02-27T05:04:41.273Z,79.80
2019-02-27T05:05:42.515Z,79.90
2019-02-27T05:06:46.869Z,79.90
2019-02-27T05:07:46.695Z,80.30
2019-02-27T05:08:47.821Z,81.30
2019-02-27T05:09:49.896Z,80.80
2019-02-27T05:10:51.181Z,80.70
2019-02-27T05:11:52.633Z,80.50
2019-02-27T05:12:53.750Z,80.30
2019-02-27T05:13:54.904Z,80.00
2019-02-27T05:14:56.100Z,79.80
2019-02-27T05:15:57.450Z,79.90
2019-02-27T05:16:59.666Z,79.70
2019-02-27T05:18:00.864Z,79.50
2019-02-27T05:19:04.042Z,79.30
2019-02-27T05:20:11.678Z,79.10
2019-02-27T05:21:10.511Z,78.90
2019-02-27T05:22:11.638Z,78.70
2019-02-27T05:23:13.092Z,78.50
2019-02-27T05:24:14.217Z,78.50
2019-02-27T05:25:15.661Z,78.60
2019-02-27T05:26:16.786Z,78.60
2019-02-27T05:27:18.216Z,78.60
2019-02-27T05:28:19.768Z,78.90
2019-02-27T05:29:20.899Z,79.30
2019-02-27T05:30:22.016Z,79.20
2019-02-27T05:31:23.136Z,79.00
2019-02-27T05:32:25.249Z,79.20
2019-02-27T05:33:27.536Z,79.40
2019-02-27T05:34:28.673Z,79.50
2019-02-27T05:35:29.808Z,79.70
2019-02-27T05:36:31.634Z,80.00
2019-02-27T05:37:36.098Z,80.80
2019-02-27T05:38:36.457Z,79.80
2019-02-27T05:39:37.868Z,79.60
2019-02-27T05:40:39.017Z,79.30
2019-02-27T05:41:40.127Z,79.30
2019-02-27T05:42:41.239Z,79.60
2019-02-27T05:43:47.555Z,79.70
2019-02-27T05:44:45.376Z,80.10
2019-02-27T05:45:46.493Z,80.20
2019-02-27T05:46:47.613Z,80.30
2019-02-27T05:47:49.077Z,80.30
2019-02-27T05:48:50.842Z,80.30
2019-02-27T05:49:53.231Z,80.40
2019-02-27T05:50:54.949Z,80.40
2019-02-27T05:51:56.388Z,80.50
2019-02-27T05:52:57.820Z,80.60
2019-02-27T05:53:59.191Z,81.60
2019-02-27T05:55:00.806Z,80.50
2019-02-27T05:56:01.938Z,80.30
2019-02-27T05:57:03.285Z,80.10
2019-02-27T05:58:04.428Z,79.80
2019-02-27T05:59:05.542Z,79.70
2019-02-27T06:00:10.073Z,79.40
2019-02-27T06:01:11.206Z,79.30
2019-02-27T06:02:12.332Z,79.50
2019-02-27T06:03:15.935Z,79.20
2019-02-27T06:04:18.139Z,79.60
2019-02-27T06:05:19.521Z,79.70
2019-02-27T06:06:20.629Z,80.30
2019-02-27T06:07:21.733Z,80.60
2019-02-27T06:08:22.836Z,80.90
2019-02-27T06:09:23.980Z,81.30
2019-02-27T06:10:25.092Z,81.50
2019-02-27T06:11:27.137Z,81.30
2019-02-27T06:12:29.584Z,80.90
2019-02-27T06:13:30.688Z,80.90
2019-02-27T06:14:31.812Z,79.70
2019-02-27T06:15:33.293Z,79.30
2019-02-27T06:16:37.074Z,79.00
2019-02-27T06:17:43.346Z,78.90
2019-02-27T06:18:40.632Z,78.80
2019-02-27T06:19:41.757Z,78.80
2019-02-27T06:20:42.884Z,78.70
2019-02-27T06:21:44.284Z,78.60
2019-02-27T06:22:45.408Z,78.70
2019-02-27T06:23:46.763Z,78.70
2019-02-27T06:24:48.238Z,79.10
2019-02-27T06:25:49.352Z,80.10
2019-02-27T06:26:50.477Z,79.60
2019-02-27T06:27:51.598Z,79.50
2019-02-27T06:29:01.570Z,79.70
2019-02-27T06:30:09.022Z,80.00
2019-02-27T06:31:10.456Z,80.40
2019-02-27T06:32:12.329Z,80.70
2019-02-27T06:33:13.600Z,80.70
2019-02-27T06:34:14.726Z,80.80
2019-02-27T06:35:15.956Z,80.90
2019-02-27T06:36:17.319Z,81.00
2019-02-27T06:37:18.421Z,81.30
2019-02-27T06:38:19.530Z,81.40
2019-02-27T06:39:20.645Z,81.60
2019-02-27T06:40:21.771Z,81.40
2019-02-27T06:41:23.288Z,80.90
2019-02-27T06:42:24.742Z,80.80
2019-02-27T06:43:27.322Z,80.80
2019-02-27T06:44:29.005Z,81.10
2019-02-27T06:45:30.425Z,81.20
2019-02-27T06:46:31.852Z,81.40
2019-02-27T06:47:35.375Z,81.70
2019-02-27T06:48:36.233Z,81.50
2019-02-27T06:49:37.341Z,81.30
2019-02-27T06:50:38.456Z,81.20
2019-02-27T06:51:39.565Z,81.00
2019-02-27T06:52:42.457Z,81.20
2019-02-27T06:53:43.729Z,81.20
2019-02-27T06:54:44.900Z,81.40
2019-02-27T06:55:46.375Z,81.50
2019-02-27T06:56:47.650Z,81.10
2019-02-27T06:57:49.124Z,81.10
2019-02-27T06:58:50.739Z,81.30
2019-02-27T06:59:51.973Z,81.40
2019-02-27T07:00:53.651Z,81.20
2019-02-27T07:01:54.803Z,81.10
2019-02-27T07:02:56.224Z,81.00
2019-02-27T07:03:57.412Z,80.80
2019-02-27T07:04:58.804Z,80.70
2019-02-27T07:05:59.944Z,80.70
2019-02-27T07:07:01.057Z,81.00
2019-02-27T07:08:04.689Z,81.30
2019-02-27T07:09:05.589Z,81.30
2019-02-27T07:10:14.397Z,81.20
2019-02-27T07:11:15.950Z,81.20
2019-02-27T07:12:21.614Z,81.30
2019-02-27T07:13:21.566Z,81.30
2019-02-27T07:14:23.253Z,81.30
2019-02-27T07:15:24.491Z,81.30
2019-02-27T07:16:25.605Z,81.40
2019-02-27T07:17:29.207Z,81.70
2019-02-27T07:18:30.071Z,82.00
2019-02-27T07:19:31.192Z,82.10
2019-02-27T07:20:32.610Z,82.20
2019-02-27T07:21:33.732Z,82.30
2019-02-27T07:22:34.855Z,82.50
2019-02-27T07:23:36.314Z,82.30
2019-02-27T07:24:37.430Z,82.30
2019-02-27T07:25:42.011Z,82.40
2019-02-27T07:26:41.664Z,82.30
2019-02-27T07:27:43.091Z,82.50
2019-02-27T07:28:44.227Z,82.70
2019-02-27T07:29:45.366Z,82.50
2019-02-27T07:30:46.517Z,82.40
2019-02-27T07:31:49.528Z,82.30
2019-02-27T07:32:50.766Z,82.30
2019-02-27T07:33:51.876Z,82.80
2019-02-27T07:34:52.988Z,83.00
2019-02-27T07:35:54.359Z,83.50
2019-02-27T07:36:55.475Z,82.90
2019-02-27T07:37:56.599Z,83.70
2019-02-27T07:38:58.306Z,86.20
2019-02-27T07:39:59.580Z,86.60
2019-02-27T07:41:00.985Z,86.90
2019-02-27T07:42:02.113Z,87.30
2019-02-27T07:43:05.750Z,86.40
2019-02-27T07:44:06.464Z,86.40
2019-02-27T07:45:13.658Z,87.60
2019-02-27T07:46:15.175Z,88.40
2019-02-27T07:47:16.285Z,88.20
2019-02-27T07:48:17.729Z,86.40
2019-02-27T07:49:19.168Z,86.10
2019-02-27T07:50:20.483Z,87.10
2019-02-27T07:51:23.295Z,86.70
2019-02-27T07:52:25.004Z,88.10
2019-02-27T07:53:26.125Z,89.50
2019-02-27T07:54:29.120Z,89.00
2019-02-27T07:55:30.265Z,88.30
2019-02-27T07:56:31.710Z,88.20
2019-02-27T07:57:32.836Z,89.30
2019-02-27T07:58:34.640Z,89.50
2019-02-27T07:59:38.140Z,88.60
2019-02-27T08:00:39.292Z,87.90
2019-02-27T08:01:43.758Z,86.80
2019-02-27T08:02:43.937Z,88.00
2019-02-27T08:03:45.781Z,87.00
2019-02-27T08:04:47.065Z,89.00
2019-02-27T08:05:48.213Z,89.20
2019-02-27T08:06:49.352Z,87.50
2019-02-27T08:07:50.585Z,89.00
2019-02-27T08:08:51.749Z,89.30
2019-02-27T08:09:52.894Z,88.90
2019-02-27T08:10:54.046Z,87.70
2019-02-27T08:11:55.184Z,89.00
2019-02-27T08:12:56.736Z,89.60
2019-02-27T08:13:57.961Z,89.90
2019-02-27T08:14:59.905Z,89.30
2019-02-27T08:16:01.549Z,89.10
2019-02-27T08:17:02.989Z,89.60
2019-02-27T08:18:04.496Z,90.20
2019-02-27T08:19:05.803Z,90.20
2019-02-27T08:20:08.252Z,90.10
2019-02-27T08:21:09.669Z,90.20
2019-02-27T08:22:10.885Z,90.20
2019-02-27T08:23:12.025Z,90.30
2019-02-27T08:24:14.339Z,90.40
2019-02-27T08:25:16.985Z,90.40
2019-02-27T08:26:18.521Z,89.90
2019-02-27T08:27:19.776Z,90.20
2019-02-27T08:28:20.912Z,90.20
2019-02-27T08:29:22.323Z,90.10
2019-02-27T08:30:24.755Z,90.30
2019-02-27T08:31:28.165Z,90.30
2019-02-27T08:32:28.949Z,90.30
2019-02-27T08:33:30.093Z,90.20
2019-02-27T08:34:31.229Z,90.10
2019-02-27T08:35:32.705Z,89.90
2019-02-27T08:36:33.849Z,90.00
2019-02-27T08:37:34.979Z,90.20
2019-02-27T08:38:36.408Z,90.50
2019-02-27T08:39:37.541Z,90.00
2019-02-27T08:40:38.690Z,90.10
2019-02-27T08:41:39.926Z,90.10
2019-02-27T08:42:41.265Z,90.00
2019-02-27T08:43:42.398Z,89.60
2019-02-27T08:44:45.798Z,89.50
2019-02-27T08:45:46.861Z,89.10
2019-02-27T08:46:48.077Z,89.00
2019-02-27T08:47:49.212Z,89.10
2019-02-27T08:48:50.724Z,88.70
2019-02-27T08:49:51.980Z,88.90
2019-02-27T08:50:53.112Z,89.60
2019-02-27T08:51:54.277Z,89.90
2019-02-27T08:52:55.434Z,89.70
2019-02-27T08:53:58.979Z,89.40
2019-02-27T08:54:59.966Z,88.80
2019-02-27T08:56:01.107Z,89.00
2019-02-27T08:57:02.485Z,88.80
2019-02-27T08:58:03.630Z,88.80
2019-02-27T08:59:05.807Z,87.90
2019-02-27T09:00:14.166Z,87.60
2019-02-27T09:01:13.958Z,87.20
2019-02-27T09:02:15.171Z,87.10
2019-02-27T09:03:20.334Z,87.10
2019-02-27T09:04:19.450Z,86.90
2019-02-27T09:05:20.979Z,86.40
2019-02-27T09:06:27.369Z,86.10
2019-02-27T09:07:25.384Z,85.90
2019-02-27T09:08:26.522Z,86.00
2019-02-27T09:09:27.656Z,85.10
2019-02-27T09:10:30.685Z,84.90
2019-02-27T09:11:32.138Z,85.40
2019-02-27T09:12:33.282Z,85.60
2019-02-27T09:13:34.422Z,85.80
2019-02-27T09:14:35.843Z,85.60
2019-02-27T09:15:36.979Z,85.60
2019-02-27T09:16:38.129Z,85.80
2019-02-27T09:17:39.423Z,85.60
2019-02-27T09:18:40.902Z,85.20
2019-02-27T09:19:45.358Z,84.50
2019-02-27T09:20:45.091Z,83.40
2019-02-27T09:21:46.403Z,82.40
2019-02-27T09:22:47.845Z,83.00
2019-02-27T09:23:48.981Z,83.30
2019-02-27T09:24:50.428Z,83.00
2019-02-27T09:25:57.159Z,83.30
2019-02-27T09:26:55.039Z,82.90
2019-02-27T09:27:56.196Z,82.40
2019-02-27T09:28:57.849Z,81.90
2019-02-27T09:29:59.009Z,81.80
2019-02-27T09:31:03.170Z,81.80
2019-02-27T09:32:03.206Z,80.90
2019-02-27T09:33:04.618Z,81.10
2019-02-27T09:34:05.844Z,80.90
2019-02-27T09:35:08.985Z,81.20
2019-02-27T09:36:11.003Z,80.70
2019-02-27T09:37:13.912Z,80.20
2019-02-27T09:38:15.286Z,80.10
2019-02-27T09:39:16.683Z,79.70
2019-02-27T09:40:25.724Z,79.80
2019-02-27T09:41:26.964Z,79.20
2019-02-27T09:42:28.433Z,79.10
2019-02-27T09:43:29.825Z,77.10
2019-02-27T09:44:30.966Z,76.20
2019-02-27T09:45:35.910Z,75.40
2019-02-27T09:46:37.353Z,74.90
2019-02-27T09:47:38.505Z,74.10
2019-02-27T09:48:39.660Z,74.50
2019-02-27T09:49:41.585Z,74.50
2019-02-27T09:50:47.597Z,75.30
2019-02-27T09:51:47.576Z,74.30
2019-02-27T09:52:48.721Z,74.10
2019-02-27T09:53:49.867Z,74.00
2019-02-27T09:54:50.993Z,74.00
2019-02-27T09:55:54.346Z,73.30
2019-02-27T09:56:55.561Z,73.40
2019-02-27T09:57:56.692Z,72.90
2019-02-27T09:58:57.846Z,72.70
2019-02-27T09:59:59.065Z,72.30
2019-02-27T10:01:06.998Z,72.50
2019-02-27T10:02:09.280Z,72.80
2019-02-27T10:03:11.062Z,72.90
2019-02-27T10:04:12.205Z,72.50
2019-02-27T10:05:13.440Z,72.70
2019-02-27T10:06:14.681Z,73.90
2019-02-27T10:07:17.079Z,73.30
2019-02-27T10:08:18.369Z,72.40
2019-02-27T10:09:19.524Z,72.10
2019-02-27T10:10:20.945Z,71.80
2019-02-27T10:11:22.442Z,70.80
2019-02-27T10:12:27.053Z,70.90
2019-02-27T10:13:27.115Z,70.70
2019-02-27T10:14:28.542Z,70.60
2019-02-27T10:15:29.701Z,69.40
2019-02-27T10:16:34.625Z,67.70
2019-02-27T10:17:33.917Z,66.40
2019-02-27T10:18:35.448Z,66.30
2019-02-27T10:19:36.596Z,66.00
2019-02-27T10:20:38.113Z,66.20
2019-02-27T10:21:41.222Z,65.10
2019-02-27T10:22:42.300Z,64.80
2019-02-27T10:23:43.753Z,65.20
2019-02-27T10:24:45.144Z,66.00
2019-02-27T10:25:46.633Z,66.30
2019-02-27T10:26:47.769Z,65.10
2019-02-27T10:27:48.921Z,65.60
2019-02-27T10:28:50.784Z,65.00
2019-02-27T10:29:51.966Z,65.10
2019-02-27T10:30:53.109Z,62.90
2019-02-27T10:31:55.426Z,63.40
2019-02-27T10:32:57.020Z,62.80
2019-02-27T10:33:58.166Z,62.50
2019-02-27T10:34:59.298Z,62.50
2019-02-27T10:36:03.417Z,62.60
2019-02-27T10:37:03.844Z,63.30
2019-02-27T10:38:05.551Z,62.90
2019-02-27T10:39:07.101Z,63.70
2019-02-27T10:40:14.162Z,64.60
2019-02-27T10:41:15.302Z,63.80
2019-02-27T10:42:16.641Z,64.60
2019-02-27T10:43:17.827Z,64.40
2019-02-27T10:44:18.961Z,63.70
2019-02-27T10:45:20.449Z,62.10
2019-02-27T10:46:23.765Z,62.30
2019-02-27T10:47:25.584Z,61.40
2019-02-27T10:48:26.732Z,61.30
2019-02-27T10:49:27.900Z,61.10
2019-02-27T10:50:29.053Z,61.10
2019-02-27T10:51:30.499Z,60.30
2019-02-27T10:52:32.065Z,59.20
2019-02-27T10:53:33.217Z,58.90
2019-02-27T10:54:37.012Z,59.20
2019-02-27T10:55:37.678Z,59.90
2019-02-27T10:56:38.808Z,59.20
2019-02-27T10:57:39.962Z,59.30
2019-02-27T10:58:41.209Z,59.60
2019-02-27T10:59:42.457Z,59.40
2019-02-27T11:00:46.379Z,59.70
2019-02-27T11:01:47.615Z,59.10
2019-02-27T11:02:52.253Z,59.40
2019-02-27T11:03:54.577Z,58.70
2019-02-27T11:04:55.837Z,58.10
2019-02-27T11:05:56.979Z,57.20
2019-02-27T11:06:58.117Z,55.90
2019-02-27T11:07:59.604Z,54.80
2019-02-27T11:09:04.492Z,54.20
2019-02-27T11:10:07.549Z,54.00
2019-02-27T11:11:08.873Z,53.50
2019-02-27T11:12:10.124Z,53.30
2019-02-27T11:13:11.277Z,53.20
2019-02-27T11:14:12.424Z,52.40
2019-02-27T11:15:17.620Z,52.00
2019-02-27T11:16:21.269Z,51.50
2019-02-27T11:17:22.083Z,51.20
2019-02-27T11:18:23.518Z,51.00
2019-02-27T11:19:24.777Z,50.70
2019-02-27T11:20:25.902Z,50.20
2019-02-27T11:21:27.033Z,49.80
2019-02-27T11:22:31.652Z,49.40
2019-02-27T11:23:31.225Z,49.30
2019-02-27T11:24:32.359Z,48.90
2019-02-27T11:25:33.501Z,48.90
2019-02-27T11:26:34.662Z,48.60
2019-02-27T11:27:36.336Z,48.20
2019-02-27T11:28:38.866Z,47.90
2019-02-27T11:29:40.021Z,47.60
2019-02-27T11:30:41.971Z,46.80
2019-02-27T11:31:45.543Z,46.30
2019-02-27T11:32:46.536Z,46.10
2019-02-27T11:33:47.926Z,45.60
2019-02-27T11:34:49.233Z,45.40
2019-02-27T11:35:50.394Z,45.10
2019-02-27T11:36:51.538Z,44.70
2019-02-27T11:37:54.893Z,44.50
2019-02-27T11:38:56.672Z,44.00
2019-02-27T11:40:00.223Z,44.00
2019-02-27T11:41:01.670Z,44.00
2019-02-27T11:42:03.029Z,43.60
2019-02-27T11:43:06.964Z,43.30
2019-02-27T11:44:07.369Z,43.10
2019-02-27T11:45:11.381Z,42.40
2019-02-27T11:46:12.525Z,42.00
2019-02-27T11:47:13.669Z,42.50
2019-02-27T11:48:15.129Z,42.00
2019-02-27T11:49:16.329Z,41.30
2019-02-27T11:50:18.755Z,41.10
2019-02-27T11:51:20.204Z,40.50
2019-02-27T11:52:21.546Z,40.30
2019-02-27T11:53:23.389Z,40.20
2019-02-27T11:54:24.537Z,40.60
2019-02-27T11:55:25.930Z,39.60
2019-02-27T11:56:27.104Z,39.50
2019-02-27T11:57:30.606Z,39.10
2019-02-27T11:58:31.485Z,38.90
2019-02-27T11:59:32.641Z,38.60
2019-02-27T12:00:33.983Z,38.20
2019-02-27T12:01:35.119Z,37.80
2019-02-27T12:02:37.776Z,37.50
2019-02-27T12:03:39.081Z,37.00
2019-02-27T12:04:40.222Z,36.80
2019-02-27T12:05:41.605Z,36.50
2019-02-27T12:06:42.746Z,36.50
2019-02-27T12:07:43.981Z,36.00
2019-02-27T12:08:45.114Z,35.80
2019-02-27T12:09:46.357Z,35.50
2019-02-27T12:10:47.537Z,34.90
2019-02-27T12:11:49.465Z,34.70
2019-02-27T12:12:50.822Z,34.70
2019-02-27T12:13:52.261Z,34.70
2019-02-27T12:14:53.409Z,34.30
2019-02-27T12:15:54.833Z,34.20
2019-02-27T12:16:55.970Z,33.70
2019-02-27T12:18:00.292Z,33.60
2019-02-27T12:19:00.638Z,33.10
2019-02-27T12:20:03.201Z,32.70
2019-02-27T12:21:04.456Z,32.30
2019-02-27T12:22:05.588Z,32.30
2019-02-27T12:23:07.540Z,31.90
2019-02-27T12:24:09.871Z,31.90
2019-02-27T12:25:15.598Z,31.40
2019-02-27T12:26:16.940Z,31.10
2019-02-27T12:27:37.802Z,30.90
2019-02-27T12:28:21.800Z,30.80
2019-02-27T12:29:24.195Z,30.70
2019-02-27T12:30:27.500Z,30.20
2019-02-27T12:31:28.634Z,30.00
2019-02-27T12:32:29.979Z,30.00
2019-02-27T12:33:31.118Z,29.80
2019-02-27T12:34:34.049Z,29.60
2019-02-27T12:35:35.917Z,30.20
2019-02-27T12:36:37.130Z,29.60
2019-02-27T12:37:38.532Z,30.10
2019-02-27T12:38:42.352Z,29.00
2019-02-27T12:39:43.607Z,29.00
2019-02-27T12:40:44.861Z,28.90
2019-02-27T12:41:49.144Z,28.70
2019-02-27T12:42:50.616Z,28.60
2019-02-27T12:43:52.642Z,28.60
2019-02-27T12:44:54.695Z,28.20
2019-02-27T12:46:01.079Z,28.00
2019-02-27T12:47:01.177Z,28.10
2019-02-27T12:48:02.318Z,27.90
2019-02-27T12:49:03.557Z,27.80
2019-02-27T12:50:08.500Z,27.60
2019-02-27T12:51:11.003Z,27.40
2019-02-27T12:52:15.285Z,27.70
2019-02-27T12:53:20.743Z,27.30
2019-02-27T12:54:19.593Z,27.10
2019-02-27T12:55:20.986Z,27.20
2019-02-27T12:56:22.136Z,27.00
2019-02-27T12:57:23.279Z,26.70
2019-02-27T12:58:25.937Z,26.70
2019-02-27T12:59:27.081Z,26.60
2019-02-27T13:00:29.527Z,26.60
2019-02-27T13:01:30.674Z,26.60
2019-02-27T13:02:35.838Z,26.60
2019-02-27T13:03:42.225Z,26.30
2019-02-27T13:04:40.881Z,26.30
2019-02-27T13:05:43.086Z,26.10
2019-02-27T13:06:44.240Z,26.10
2019-02-27T13:07:45.532Z,25.80
2019-02-27T13:08:46.742Z,26.20
2019-02-27T13:09:48.225Z,26.40
2019-02-27T13:10:49.574Z,26.10
2019-02-27T13:11:50.760Z,26.10
2019-02-27T13:12:52.582Z,25.80
2019-02-27T13:13:53.914Z,25.60
2019-02-27T13:14:55.073Z,25.40
2019-02-27T13:15:56.296Z,25.10
2019-02-27T13:16:57.313Z,25.30
2019-02-27T13:18:00.392Z,25.10
2019-02-27T13:19:06.281Z,25.20
2019-02-27T13:20:09.053Z,25.00
2019-02-27T13:21:11.843Z,24.80
2019-02-27T13:22:13.294Z,23.90
2019-02-27T13:23:14.730Z,25.40
2019-02-27T13:24:16.191Z,25.40
2019-02-27T13:25:17.667Z,23.40
2019-02-27T13:26:20.782Z,25.90
2019-02-27T13:27:25.177Z,25.90
2019-02-27T13:28:26.427Z,23.10
2019-02-27T13:29:27.584Z,25.60
2019-02-27T13:30:28.732Z,23.80
2019-02-27T13:31:29.881Z,24.70
2019-02-27T13:32:31.021Z,26.30
2019-02-27T13:33:32.921Z,25.10
2019-02-27T13:34:34.215Z,26.90
2019-02-27T13:35:35.358Z,24.10
2019-02-27T13:36:36.570Z,25.90
2019-02-27T13:37:37.805Z,27.90
2019-02-27T13:38:39.205Z,28.10
2019-02-27T13:39:40.337Z,25.40
2019-02-27T13:40:41.477Z,26.10
2019-02-27T13:41:45.663Z,24.90